Aeroporto :
LOGIN :

Iscrizione | Disclaimer

   EN    FR    IT 

 










Sommario :    VFR   VFR Marginale   IFR   IFR Intensivo   IFR Molto Intensivo
Visibilità : 
Base nubi : 
>= 8 km
>= 3000ft
5 / 8 km
1000 / 3000 ft
1500m / 5 km
500 / 1000 ft
800 / 1500m
200 / 500 ft
< 800m
< 200 ft
Simboli :   Temporali  Nebbia  Neve Forte  Precipitazioni Forti  Vento > 20 kt
SIGMETs :   Varie  Temporali  Ghiacco  Turbolenza  Onda orograficha  Ceneri Vulcaniche







- Altitudine del aeroporto : 291 ft
- Codice IATA : ORY
- Carte del aeroporto


LFPO - Paris-Orly

ULTIMO METAR :
  • 121530Z AUTO 23005KT 9999 SCT040 SCT047 05/01 Q1014

METARs OBSOLETI :
  • 121500Z AUTO 23006KT CAVOK 05/01 Q1013
  • 121430Z AUTO 22006KT 190V250 CAVOK 06/01 Q1013
  • 121400Z AUTO 24006KT 9999 FEW018 06/01 Q1012
  • 121330Z AUTO 24007KT 9999 FEW018 06/01 Q1012
  • 121300Z AUTO 23007KT 190V260 9999 FEW033 06/01 Q1012

TAF TAF LFPO
Valido dal 11 a 18 ore il 13 a 00 ore UTC


111700Z 1118/1224 30015G25KT 9999 BKN008 BKN012
TEMPO 1118/1122 -RA BKN006 BKN016
PROB30
TEMPO 1118/1122 4000 -SHRASN BKN005
BECMG 1122/1124 30010KT
BECMG 1200/1203 BKN016
BECMG 1206/1209 SCT025
BECMG 1217/1220 BKN014
TEMPO 1222/1224 BKN008
ATIS : +33 1 49 75 65 80
Nessun NOTAM noto per questo aeroporto.



MetMap, La meteo Aeronautica in un colpo d'occhio ! - Copyright ORBIFLY Dicembre 2007 - Disclaimer

ORBIFLY MET'MAP TEAM :

Programmazione e sviluppo : Alexandra Zaïnal
Concezione e sviluppo : Baudouin d'Aumeries
Co-Programmazione e sviluppo : Marc-Olivier Méhu
Supporto tecnico e logistico : Manuel Goepfert
Aiuto per la traduzione : Arnaldo La Scala

Contatto : metmap@orbifly.com




FONTI E CREDITI :

   NOAA